Time;durP1;ratioP1;P1;durP2;ratioP2;P2;SDS_P1;SDS_P2;PMS_P1;PMS_P2;Temp;Humidity;BMP_temperature;BMP_pressure;BME280_temperature;BME280_humidity;BME280_pressure;Samples;Min_cycle;Max_cycle;Signal;HPM_P1;HPM_P2
2022/08/24 00:01:15;;;;;;;;;;;;;;;19.65;54.42;100436.31;4952731;29;19977;-82
2022/08/24 00:03:42;;;;;;;;;;;;;;;19.62;54.76;100447.81;4952454;29;19962;-83
2022/08/24 00:06:10;;;;;;;;;;;;;;;19.56;55.23;100437.94;4953468;29;19930;-83
2022/08/24 00:08:38;;;;;;;;;;;;;;;19.49;55.28;100433.50;4952327;28;20021;-84
2022/08/24 00:11:05;;;;;;;;;;;;;;;19.43;55.35;100436.53;4955987;29;19978;-85
2022/08/24 00:13:33;;;;;;;;;;;;;;;19.40;55.43;100437.88;4957574;29;19930;-84
2022/08/24 00:16:05;;;;;;;;;;;;;;;19.37;55.61;100432.97;4940535;29;20278;-83
2022/08/24 00:18:33;;;;;;;;;;;;;;;19.33;55.58;100440.03;4957222;29;19938;-82
2022/08/24 00:21:00;;;;;;;;;;;;;;;19.27;56.26;100433.72;4956371;29;20357;-82
2022/08/24 00:23:28;;;;;;;;;;;;;;;19.28;56.01;100438.09;4957350;28;19931;-83
2022/08/24 00:25:55;;;;;;;;;;;;;;;19.24;56.25;100433.44;4957428;29;20382;-83
2022/08/24 00:28:22;;;;;;;;;;;;;;;19.27;56.20;100441.94;4957468;29;19930;-83
2022/08/24 00:30:49;;;;;;;;;;;;;;;19.18;56.50;100442.72;4957157;29;19935;-83
2022/08/24 00:33:16;;;;;;;;;;;;;;;19.11;56.75;100447.59;4957577;29;19937;-84
2022/08/24 00:35:44;;;;;;;;;;;;;;;19.09;56.87;100445.16;4957143;29;20310;-82
2022/08/24 00:38:11;;;;;;;;;;;;;;;19.05;56.91;100446.75;4956772;29;20317;-83
2022/08/24 00:40:42;;;;;;;;;;;;;;;18.99;57.02;100450.53;4939372;29;19934;-83
2022/08/24 00:43:09;;;;;;;;;;;;;;;18.92;57.23;100448.06;4940145;29;19935;-82
2022/08/24 00:45:40;;;;;;;;;;;;;;;18.97;57.69;100452.75;4956631;29;20313;-83
2022/08/24 00:48:10;;;;;;;;;;;;;;;18.96;57.60;100449.16;4956077;29;19937;-83
2022/08/24 00:50:42;;;;;;;;;;;;;;;18.95;57.50;100447.53;4939809;29;19930;-84
2022/08/24 00:53:11;;;;;;;;;;;;;;;18.89;57.46;100451.34;4956785;29;19950;-84
2022/08/24 00:55:40;;;;;;;;;;;;;;;18.89;57.31;100453.22;4956529;29;19931;-83
2022/08/24 00:58:15;;;;;;;;;;;;;;;18.83;57.56;100449.63;4956859;29;19938;-83
2022/08/24 01:00:47;;;;;;;;;;;;;;;18.74;57.79;100454.75;4955286;29;20010;-83
2022/08/24 01:03:14;;;;;;;;;;;;;;;18.70;58.12;100455.53;4956559;29;19977;-83
2022/08/24 01:05:43;;;;;;;;;;;;;;;18.65;58.54;100459.06;4908138;29;19937;-83
2022/08/24 01:08:11;;;;;;;;;;;;;;;18.60;58.71;100456.28;4939735;29;19930;-82
2022/08/24 01:10:43;;;;;;;;;;;;;;;18.57;58.61;100456.81;4956186;29;19930;-84
2022/08/24 01:13:10;;;;;;;;;;;;;;;18.53;58.79;100448.31;4955587;29;19931;-84
2022/08/24 01:15:39;;;;;;;;;;;;;;;18.51;58.74;100453.22;4939182;29;19931;-83
2022/08/24 01:20:55;;;;;;;;;;;;;;;18.51;59.10;100447.75;4941013;29;19978;-85
2022/08/24 01:23:27;;;;;;;;;;;;;;;18.42;59.41;100454.78;4938892;29;19985;-84
2022/08/24 01:26:03;;;;;;;;;;;;;;;18.36;59.75;100453.13;4939179;29;20416;-83
2022/08/24 01:28:30;;;;;;;;;;;;;;;18.34;59.67;100458.81;4939082;29;20397;-83
2022/08/24 01:30:58;;;;;;;;;;;;;;;18.32;59.74;100454.72;4923938;29;20019;-84
2022/08/24 01:33:27;;;;;;;;;;;;;;;18.29;60.14;100455.22;4939207;29;19965;-84
2022/08/24 01:35:57;;;;;;;;;;;;;;;18.28;60.04;100459.88;4956036;29;19942;-83
2022/08/24 01:38:24;;;;;;;;;;;;;;;18.27;59.96;100455.47;4955769;29;19935;-84
2022/08/24 01:40:52;;;;;;;;;;;;;;;18.21;60.17;100451.06;4938405;29;19930;-82
2022/08/24 01:43:20;;;;;;;;;;;;;;;18.19;60.07;100453.22;4907316;29;19985;-83
2022/08/24 01:45:47;;;;;;;;;;;;;;;18.20;60.15;100449.41;4923112;29;20401;-83
2022/08/24 01:48:14;;;;;;;;;;;;;;;18.25;59.94;100457.66;4938975;29;19937;-83
2022/08/24 01:50:51;;;;;;;;;;;;;;;18.25;59.85;100456.81;4938605;29;20037;-84
2022/08/24 01:53:20;;;;;;;;;;;;;;;18.21;60.02;100450.25;4938565;29;19930;-83
2022/08/24 01:55:47;;;;;;;;;;;;;;;18.21;59.82;100445.59;4938509;29;19934;-84
2022/08/24 01:58:15;;;;;;;;;;;;;;;18.21;59.83;100455.72;4938642;29;19938;-83
2022/08/24 02:00:42;;;;;;;;;;;;;;;18.18;60.15;100455.16;4938330;29;20381;-83
2022/08/24 02:03:09;;;;;;;;;;;;;;;18.17;59.96;100450.75;4922533;29;20405;-83
2022/08/24 02:05:38;;;;;;;;;;;;;;;18.16;59.91;100460.03;4922754;29;19953;-83
2022/08/24 02:08:11;;;;;;;;;;;;;;;18.21;59.88;100450.25;4954197;29;19936;-83
2022/08/24 02:10:38;;;;;;;;;;;;;;;18.19;60.00;100456.78;4938157;29;19954;-83
2022/08/24 02:13:05;;;;;;;;;;;;;;;18.18;60.07;100462.53;4938455;29;20350;-82
2022/08/24 02:15:36;;;;;;;;;;;;;;;18.18;60.10;100462.53;4938408;29;19937;-82
2022/08/24 02:18:03;;;;;;;;;;;;;;;18.21;60.04;100451.06;4938034;29;19985;-84
2022/08/24 02:20:31;;;;;;;;;;;;;;;18.21;59.99;100455.72;4955570;29;19931;-82
2022/08/24 02:22:57;;;;;;;;;;;;;;;18.34;59.41;100458.00;4941601;29;20029;-83
2022/08/24 02:25:26;;;;;;;;;;;;;;;18.40;59.75;100459.69;4953887;29;19961;-84
2022/08/24 02:27:53;;;;;;;;;;;;;;;18.35;59.77;100456.91;4953638;29;19934;-84
2022/08/24 02:30:20;;;;;;;;;;;;;;;18.34;59.85;100463.47;4969903;28;20398;-82
2022/08/24 02:32:47;;;;;;;;;;;;;;;18.31;59.72;100455.81;4968781;28;19934;-84
2022/08/24 02:35:14;;;;;;;;;;;;;;;18.30;59.82;100459.59;4953465;29;20317;-84
2022/08/24 02:37:41;;;;;;;;;;;;;;;18.38;59.26;100462.69;4953732;29;19938;-84
2022/08/24 02:40:13;;;;;;;;;;;;;;;18.45;59.13;100458.91;4954086;29;20447;-84
2022/08/24 02:42:44;;;;;;;;;;;;;;;18.56;58.44;100464.19;4953116;29;19930;-85
2022/08/24 02:45:11;;;;;;;;;;;;;;;18.61;58.29;100466.97;4954632;29;19981;-85
2022/08/24 02:47:38;;;;;;;;;;;;;;;18.58;58.73;100461.19;4954719;29;19937;-83
2022/08/24 02:50:07;;;;;;;;;;;;;;;18.54;58.71;100460.91;4953521;28;20018;-83
2022/08/24 02:52:35;;;;;;;;;;;;;;;18.49;58.98;100458.13;4955757;29;19962;-82
2022/08/24 02:55:02;;;;;;;;;;;;;;;18.55;58.89;100461.72;4980138;28;20025;-83
2022/08/24 02:57:29;;;;;;;;;;;;;;;18.65;58.63;100463.72;4969539;28;19934;-84
2022/08/24 02:59:57;;;;;;;;;;;;;;;18.76;58.47;100462.72;4954042;29;19934;-82
2022/08/24 03:02:24;;;;;;;;;;;;;;;18.83;58.14;100474.25;4954867;29;20037;-84
2022/08/24 03:04:52;;;;;;;;;;;;;;;18.96;57.40;100471.03;4969398;28;20449;-83
2022/08/24 03:07:18;;;;;;;;;;;;;;;19.07;56.88;100473.88;4954473;29;19930;-85
2022/08/24 03:09:45;;;;;;;;;;;;;;;19.20;56.16;100473.38;4969421;28;19930;-84
2022/08/24 03:12:12;;;;;;;;;;;;;;;19.33;55.65;100474.81;4953182;29;19931;-84
2022/08/24 03:14:40;;;;;;;;;;;;;;;19.39;55.66;100471.81;4952939;29;20017;-83
2022/08/24 03:17:07;;;;;;;;;;;;;;;19.45;55.17;100478.97;4954433;29;19931;-84
2022/08/24 03:19:34;;;;;;;;;;;;;;;19.57;54.93;100483.38;4954438;29;20209;-85
2022/08/24 03:22:01;;;;;;;;;;;;;;;19.62;55.00;100477.91;4953228;29;20424;-84
2022/08/24 03:24:28;;;;;;;;;;;;;;;19.69;54.82;100478.53;4934794;29;19977;-84
2022/08/24 03:26:55;;;;;;;;;;;;;;;19.79;54.43;100483.22;4903235;29;19930;-84
2022/08/24 03:29:25;;;;;;;;;;;;;;;19.87;54.18;100479.94;4935924;29;19987;-85
2022/08/24 03:31:52;;;;;;;;;;;;;;;19.97;53.74;100490.09;4918539;29;19931;-83
2022/08/24 03:34:19;;;;;;;;;;;;;;;20.03;53.68;100486.31;4934531;29;19938;-84
2022/08/24 03:36:47;;;;;;;;;;;;;;;20.07;53.76;100488.19;4934198;29;19938;-84
2022/08/24 03:39:15;;;;;;;;;;;;;;;20.10;53.90;100487.69;4918786;29;19938;-84
2022/08/24 03:41:42;;;;;;;;;;;;;;;20.16;53.67;100494.00;4918391;29;19974;-84
2022/08/24 03:44:10;;;;;;;;;;;;;;;20.20;53.76;100489.59;4933735;29;19962;-83
2022/08/24 03:46:37;;;;;;;;;;;;;;;20.23;53.61;100497.28;4918004;29;20101;-84
2022/08/24 03:49:07;;;;;;;;;;;;;;;20.27;53.66;100497.56;4918397;29;19969;-84
2022/08/24 03:51:35;;;;;;;;;;;;;;;20.35;53.69;100489.59;4933698;29;19931;-83
2022/08/24 03:54:04;;;;;;;;;;;;;;;20.42;53.55;100488.53;4918226;29;20425;-83
2022/08/24 03:56:31;;;;;;;;;;;;;;;20.49;53.60;100494.56;4917152;29;19931;-84
2022/08/24 03:58:59;;;;;;;;;;;;;;;20.58;53.55;100486.63;4940782;29;19930;-85
2022/08/24 04:01:29;;;;;;;;;;;;;;;20.66;53.32;100486.91;4953002;29;20025;-85
2022/08/24 04:03:57;;;;;;;;;;;;;;;20.76;53.22;100489.66;4936407;29;19934;-85
2022/08/24 04:06:30;;;;;;;;;;;;;;;20.85;53.09;100494.56;4937254;29;19931;-86
2022/08/24 04:08:57;;;;;;;;;;;;;;;20.92;52.74;100492.34;4927330;29;19930;-87
2022/08/24 04:11:42;;;;;;;;;;;;;;;21.04;52.28;100495.63;4927114;29;19957;-82
2022/08/24 04:14:11;;;;;;;;;;;;;;;21.16;52.02;100503.53;4943399;29;19934;-85
2022/08/24 04:17:03;;;;;;;;;;;;;;;21.32;51.41;100501.56;4901180;29;20374;-85
2022/08/24 04:19:35;;;;;;;;;;;;;;;21.37;51.03;100499.66;4928050;29;19930;-83
2022/08/24 04:22:02;;;;;;;;;;;;;;;21.45;50.98;100503.78;4943534;28;20021;-89
2022/08/24 04:24:30;;;;;;;;;;;;;;;21.52;50.76;100504.31;4942666;29;19937;-89
2022/08/24 04:26:56;;;;;;;;;;;;;;;21.58;50.53;100508.66;4941699;29;20405;-86
2022/08/24 04:29:24;;;;;;;;;;;;;;;21.66;50.38;100510.00;4941165;29;20055;-87
2022/08/24 04:31:52;;;;;;;;;;;;;;;21.72;50.26;100508.84;4938208;29;19935;-88
2022/08/24 04:34:20;;;;;;;;;;;;;;;21.84;49.94;100508.53;4957798;28;19930;-87
2022/08/24 04:36:48;;;;;;;;;;;;;;;21.93;50.73;100509.59;4930792;29;19931;-86
2022/08/24 04:39:16;;;;;;;;;;;;;;;22.05;50.36;100509.22;4929836;29;19973;-85
2022/08/24 04:41:46;;;;;;;;;;;;;;;22.14;49.94;100507.53;4930369;29;19931;-84
2022/08/24 04:44:16;;;;;;;;;;;;;;;22.25;49.37;100516.56;4934157;29;19940;-87
2022/08/24 04:46:43;;;;;;;;;;;;;;;22.33;48.66;100506.88;4944131;29;19931;-82
2022/08/24 04:49:10;;;;;;;;;;;;;;;22.39;48.61;100509.31;4949383;29;19930;-83
2022/08/24 04:51:37;;;;;;;;;;;;;;;22.49;48.28;100511.97;4948188;29;19930;-83
2022/08/24 04:54:07;;;;;;;;;;;;;;;22.59;47.91;100511.06;4945055;29;19962;-83
2022/08/24 04:56:34;;;;;;;;;;;;;;;22.65;47.43;100507.16;4941508;28;20013;-85
2022/08/24 04:59:03;;;;;;;;;;;;;;;22.69;47.17;100507.41;4934788;29;19935;-82
2022/08/24 05:01:32;;;;;;;;;;;;;;;22.67;47.20;100510.44;4936191;29;19935;-82
2022/08/24 05:04:02;;;;;;;;;;;;;;;22.71;47.10;100513.44;4952487;29;19934;-86
2022/08/24 05:06:29;;;;;;;;;;;;;;;22.69;47.39;100508.22;4954238;28;19939;-85
2022/08/24 05:08:57;;;;;;;;;;;;;;;22.72;47.25;100517.84;4954782;29;19981;-84
2022/08/24 05:11:27;;;;;;;;;;;;;;;22.67;47.43;100515.94;4954474;29;19985;-84
2022/08/24 05:13:55;;;;;;;;;;;;;;;22.71;47.19;100516.19;4954627;29;19937;-86
2022/08/24 05:16:23;;;;;;;;;;;;;;;22.69;47.52;100515.69;4939263;29;19931;-85
2022/08/24 05:18:53;;;;;;;;;;;;;;;22.62;47.51;100510.50;4955761;28;19985;-86
2022/08/24 05:21:21;;;;;;;;;;;;;;;22.50;47.46;100510.84;4970693;28;20030;-84
2022/08/24 05:23:49;;;;;;;;;;;;;;;22.47;47.67;100516.13;4954672;29;19958;-85
2022/08/24 05:26:23;;;;;;;;;;;;;;;22.56;47.68;100510.81;4954685;29;19937;-85
2022/08/24 05:28:54;;;;;;;;;;;;;;;22.69;47.36;100510.19;4947406;29;20406;-87
2022/08/24 05:31:24;;;;;;;;;;;;;;;22.80;47.33;100513.66;4923668;29;19946;-86
2022/08/24 05:33:51;;;;;;;;;;;;;;;22.86;46.90;100517.97;4953775;29;20024;-83
2022/08/24 05:36:26;;;;;;;;;;;;;;;22.94;46.90;100515.44;4960687;28;19931;-87
2022/08/24 05:38:55;;;;;;;;;;;;;;;23.04;46.77;100514.56;4957223;28;19934;-86
2022/08/24 05:41:23;;;;;;;;;;;;;;;23.13;46.44;100511.97;4942432;29;19938;-86
2022/08/24 05:43:58;;;;;;;;;;;;;;;23.21;46.28;100510.50;4950978;29;19955;-84
2022/08/24 05:46:25;;;;;;;;;;;;;;;23.38;46.06;100512.81;4951391;29;20504;-86
2022/08/24 05:48:53;;;;;;;;;;;;;;;23.55;45.41;100515.91;4937693;29;20398;-88
2022/08/24 05:51:28;;;;;;;;;;;;;;;23.70;45.24;100521.22;4949630;29;19931;-86
2022/08/24 05:54:03;;;;;;;;;;;;;;;23.86;45.15;100518.28;4918768;29;20219;-83
2022/08/24 05:56:41;;;;;;;;;;;;;;;23.98;44.73;100521.44;4936874;29;19961;-85
2022/08/24 05:59:08;;;;;;;;;;;;;;;24.16;44.58;100517.03;4944379;29;19931;-86
2022/08/24 06:01:35;;;;;;;;;;;;;;;24.23;44.32;100517.47;4940986;29;20357;-85
2022/08/24 06:04:02;;;;;;;;;;;;;;;24.33;44.27;100517.34;4957797;28;19934;-84
2022/08/24 06:06:30;;;;;;;;;;;;;;;24.49;44.17;100520.69;4945816;28;20025;-86
2022/08/24 06:08:58;;;;;;;;;;;;;;;24.52;43.76;100514.56;4941090;29;20022;-85
2022/08/24 06:11:27;;;;;;;;;;;;;;;24.56;44.04;100514.75;4942171;29;19969;-87
2022/08/24 06:13:59;;;;;;;;;;;;;;;24.69;43.58;100511.25;4946760;29;19997;-84
2022/08/24 06:16:29;;;;;;;;;;;;;;;24.85;43.55;100512.59;4934864;29;19935;-84
2022/08/24 06:18:56;;;;;;;;;;;;;;;24.98;43.57;100516.50;4942925;29;19931;-84
2022/08/24 06:21:27;;;;;;;;;;;;;;;25.13;42.88;100515.41;4953816;29;19931;-83
2022/08/24 06:23:56;;;;;;;;;;;;;;;25.15;42.06;100509.59;4966843;28;19969;-83
2022/08/24 06:29:15;;;;;;;;;;;;;;;25.29;41.58;100515.97;4941785;28;20413;-84
2022/08/24 06:31:45;;;;;;;;;;;;;;;25.33;41.30;100514.22;4942895;28;19960;-84
2022/08/24 06:34:13;;;;;;;;;;;;;;;25.35;40.96;100509.22;4949764;28;19978;-84
2022/08/24 06:36:41;;;;;;;;;;;;;;;25.42;40.75;100509.63;4943885;29;20005;-83
2022/08/24 06:39:11;;;;;;;;;;;;;;;25.59;40.86;100510.94;4939838;28;20033;-83
2022/08/24 06:41:43;;;;;;;;;;;;;;;25.69;40.56;100513.50;4594296;28;10000085;-84
2022/08/24 06:44:15;;;;;;;;;;;;;;;25.71;40.58;100514.81;4935992;28;19953;-83
2022/08/24 06:46:48;;;;;;;;;;;;;;;25.72;40.41;100518.41;4938189;28;19934;-83
2022/08/24 06:49:16;;;;;;;;;;;;;;;25.79;40.20;100520.75;4946102;28;19980;-84
2022/08/24 06:51:44;;;;;;;;;;;;;;;25.97;40.04;100513.47;4941822;28;19931;-84
2022/08/24 06:54:19;;;;;;;;;;;;;;;26.02;39.35;100516.13;4942016;28;19931;-83
2022/08/24 06:56:47;;;;;;;;;;;;;;;26.06;39.26;100514.38;4941438;29;19985;-83
2022/08/24 06:59:15;;;;;;;;;;;;;;;26.19;39.08;100507.97;4933657;29;19930;-84
2022/08/24 07:01:41;;;;;;;;;;;;;;;26.24;37.54;100513.41;4933735;29;19934;-83
2022/08/24 07:04:09;;;;;;;;;;;;;;;26.27;37.40;100523.03;4933897;28;19969;-85
2022/08/24 07:07:07;;;;;;;;;;;;;;;26.18;36.32;100517.41;4911867;29;20226;-84
2022/08/24 07:09:40;;;;;;;;;;;;;;;26.29;36.91;100507.75;4892155;29;20092;-82
2022/08/24 07:12:07;;;;;;;;;;;;;;;26.41;36.79;100514.66;4914801;29;19996;-83
2022/08/24 07:14:35;;;;;;;;;;;;;;;26.38;36.70;100514.16;4887176;29;20354;-83
2022/08/24 07:17:02;;;;;;;;;;;;;;;26.38;36.57;100503.09;4901667;29;20429;-82
2022/08/24 07:19:30;;;;;;;;;;;;;;;26.55;36.78;100509.91;4897184;29;19931;-83
2022/08/24 07:21:58;;;;;;;;;;;;;;;26.71;36.88;100507.56;4913459;29;19930;-82
2022/08/24 07:24:26;;;;;;;;;;;;;;;26.84;36.74;100497.53;4897160;29;19930;-83
2022/08/24 07:26:53;;;;;;;;;;;;;;;26.96;36.56;100508.84;4913083;29;19931;-82
2022/08/24 07:29:21;;;;;;;;;;;;;;;27.11;36.10;100497.34;4913367;29;20055;-85
2022/08/24 07:32:09;;;;;;;;;;;;;;;27.35;35.19;100499.78;4913311;29;20402;-84
2022/08/24 07:34:39;;;;;;;;;;;;;;;27.58;34.83;100500.47;4898151;29;19974;-83
2022/08/24 07:37:07;;;;;;;;;;;;;;;27.64;34.71;100498.38;4912601;29;20355;-83
2022/08/24 07:39:37;;;;;;;;;;;;;;;27.74;34.35;100497.25;4913114;29;19931;-84
2022/08/24 07:42:05;;;;;;;;;;;;;;;27.80;34.28;100509.81;4896864;29;19942;-83
2022/08/24 07:44:40;;;;;;;;;;;;;;;27.72;34.69;100505.06;4969506;28;19930;-83
2022/08/24 07:47:08;;;;;;;;;;;;;;;27.84;34.20;100496.97;4954840;28;19993;-82
2022/08/24 07:49:55;;;;;;;;;;;;;;;27.96;33.79;100499.91;4955365;28;19930;-83
2022/08/24 07:52:22;;;;;;;;;;;;;;;28.04;33.60;100499.09;4955413;28;20348;-83
2022/08/24 07:54:49;;;;;;;;;;;;;;;28.20;33.79;100493.06;4955211;28;19938;-83
2022/08/24 07:57:17;;;;;;;;;;;;;;;28.47;33.38;100487.19;4955373;28;19968;-83
2022/08/24 07:59:46;;;;;;;;;;;;;;;28.86;32.44;100484.50;4974227;28;19961;-84
2022/08/24 08:02:13;;;;;;;;;;;;;;;29.06;31.04;100488.53;4955190;28;20036;-82
2022/08/24 08:04:46;;;;;;;;;;;;;;;28.90;30.58;100489.06;4972415;28;20050;-84
2022/08/24 08:07:13;;;;;;;;;;;;;;;29.02;31.02;100481.97;4939068;28;19937;-82
2022/08/24 08:09:41;;;;;;;;;;;;;;;29.17;30.64;100493.41;4955228;28;19937;-84
2022/08/24 08:12:11;;;;;;;;;;;;;;;29.35;30.30;100487.75;4956028;28;19934;-84
2022/08/24 08:14:52;;;;;;;;;;;;;;;29.49;30.34;100477.19;4949569;28;20385;-84
2022/08/24 08:17:19;;;;;;;;;;;;;;;29.74;29.81;100469.06;4960696;28;19941;-83
2022/08/24 08:19:46;;;;;;;;;;;;;;;29.94;28.72;100481.34;4952023;28;19934;-85
2022/08/24 08:25:18;;;;;;;;;;;;;;;30.54;27.50;100471.66;4962539;28;19941;-84
2022/08/24 08:27:45;;;;;;;;;;;;;;;30.79;26.91;100471.72;4970974;28;19946;-84
2022/08/24 08:30:16;;;;;;;;;;;;;;;30.94;26.70;100473.03;4955373;28;19977;-84
2022/08/24 08:32:43;;;;;;;;;;;;;;;31.15;26.44;100470.19;4972535;28;19953;-83
2022/08/24 08:35:10;;;;;;;;;;;;;;;31.54;25.33;100468.66;4952196;28;19930;-85
2022/08/24 08:37:38;;;;;;;;;;;;;;;31.76;24.94;100478.50;4939704;29;19934;-84
2022/08/24 08:40:08;;;;;;;;;;;;;;;31.90;24.69;100472.53;4959379;28;20305;-84
2022/08/24 08:42:55;;;;;;;;;;;;;;;32.19;24.16;100465.03;4958074;28;19930;-85
2022/08/24 08:45:30;;;;;;;;;;;;;;;32.21;23.34;100466.31;4942819;28;19934;-84
2022/08/24 08:48:47;;;;;;;;;;;;;;;32.46;22.91;100471.75;4939116;28;19930;-84
2022/08/24 08:51:35;;;;;;;;;;;;;;;32.57;22.95;100464.53;4936796;28;19937;-85
2022/08/24 08:54:13;;;;;;;;;;;;;;;32.58;22.33;100458.56;4956189;28;19977;-85
2022/08/24 08:56:43;;;;;;;;;;;;;;;32.67;22.21;100447.25;4941907;28;19930;-84
2022/08/24 08:59:29;;;;;;;;;;;;;;;33.02;22.59;100458.56;4953665;29;20468;-84
2022/08/24 09:02:13;;;;;;;;;;;;;;;33.34;21.71;100455.72;4937689;28;20266;-84
2022/08/24 09:05:10;;;;;;;;;;;;;;;33.35;21.67;100453.72;4943472;28;19930;-83
2022/08/24 09:07:37;;;;;;;;;;;;;;;33.72;21.66;100456.19;4915586;29;19931;-84
2022/08/24 09:10:19;;;;;;;;;;;;;;;34.21;21.02;100455.63;4910862;29;20500;-84
2022/08/24 09:13:05;;;;;;;;;;;;;;;33.94;20.12;100452.66;4898504;29;19931;-85
2022/08/24 09:15:51;;;;;;;;;;;;;;;34.15;19.94;100452.31;4907969;29;20421;-84
2022/08/24 09:18:24;;;;;;;;;;;;;;;34.08;20.54;100439.00;4894431;29;20116;-85
2022/08/24 09:21:13;;;;;;;;;;;;;;;34.07;19.48;100456.97;4910112;29;20034;-86
2022/08/24 09:24:03;;;;;;;;;;;;;;;33.98;18.89;100458.34;4905212;29;20462;-83
2022/08/24 09:26:38;;;;;;;;;;;;;;;33.58;19.34;100443.50;4873650;29;19935;-84
2022/08/24 09:29:09;;;;;;;;;;;;;;;33.87;18.97;100447.72;4874372;29;20042;-84
2022/08/24 09:31:41;;;;;;;;;;;;;;;33.93;19.26;100433.44;4895415;29;20462;-87
2022/08/24 09:34:24;;;;;;;;;;;;;;;34.30;18.97;100442.22;4911135;29;19937;-85
2022/08/24 09:37:15;;;;;;;;;;;;;;;34.69;18.34;100433.75;4859914;29;20481;-85
2022/08/24 09:40:05;;;;;;;;;;;;;;;34.96;17.88;100441.03;4572542;29;10001970;-85
2022/08/24 09:42:48;;;;;;;;;;;;;;;35.20;17.84;100430.63;4914474;29;20049;-85
2022/08/24 09:45:33;;;;;;;;;;;;;;;35.36;17.54;100439.69;4915990;29;19935;-85
2022/08/24 09:48:10;;;;;;;;;;;;;;;35.80;17.28;100436.31;4928188;29;20420;-84
2022/08/24 09:50:49;;;;;;;;;;;;;;;35.83;17.33;100420.72;4932911;29;19990;-86
2022/08/24 09:53:23;;;;;;;;;;;;;;;35.90;17.06;100448.84;4914590;29;20477;-85
2022/08/24 09:56:10;;;;;;;;;;;;;;;35.93;16.66;100453.72;4932829;29;19930;-85
2022/08/24 09:58:49;;;;;;;;;;;;;;;35.64;16.96;100440.50;4947141;29;19931;-85
2022/08/24 10:01:36;;;;;;;;;;;;;;;35.37;17.26;100432.06;5037810;23;20084;-85
2022/08/24 10:04:18;;;;;;;;;;;;;;;35.52;17.52;100439.50;4937765;29;19931;-86
2022/08/24 10:06:48;;;;;;;;;;;;;;;36.26;16.79;100442.88;4899680;29;20306;-85
2022/08/24 10:09:24;;;;;;;;;;;;;;;36.35;16.40;100446.22;4932641;29;20398;-84
2022/08/24 10:11:57;;;;;;;;;;;;;;;36.72;16.40;100437.78;4930256;29;19931;-88
2022/08/24 10:14:30;;;;;;;;;;;;;;;36.91;16.43;100445.16;4928998;29;19941;-86
2022/08/24 10:17:19;;;;;;;;;;;;;;;36.71;16.38;100438.94;4912043;29;19931;-87
2022/08/24 10:19:52;;;;;;;;;;;;;;;36.70;16.45;100430.91;4916170;29;20386;-88
2022/08/24 10:22:25;;;;;;;;;;;;;;;36.57;16.63;100427.59;4931658;29;20500;-87
2022/08/24 10:25:10;;;;;;;;;;;;;;;37.24;16.07;100432.97;4931839;29;20445;-85
2022/08/24 10:27:37;;;;;;;;;;;;;;;37.26;15.93;100426.97;4930854;29;19980;-88
2022/08/24 10:30:07;;;;;;;;;;;;;;;37.43;15.78;100415.00;4929997;29;20634;-87
2022/08/24 10:32:47;;;;;;;;;;;;;;;37.65;16.04;100426.41;4930732;29;19935;-87
2022/08/24 10:35:24;;;;;;;;;;;;;;;37.26;15.95;100432.59;4930201;29;19935;-86
2022/08/24 10:41:05;;;;;;;;;;;;;;;37.65;16.20;100417.94;4928285;29;19931;-86
2022/08/24 10:43:59;;;;;;;;;;;;;;;37.51;16.06;100415.88;4900030;29;19941;-87
2022/08/24 10:46:32;;;;;;;;;;;;;;;37.76;15.96;100410.38;4910835;29;19938;-88
2022/08/24 10:49:17;;;;;;;;;;;;;;;38.09;15.69;100420.59;4923695;29;19958;-88
2022/08/24 10:51:54;;;;;;;;;;;;;;;37.95;15.41;100401.56;4934837;29;19945;-91
2022/08/24 10:54:22;;;;;;;;;;;;;;;37.74;15.21;100415.59;4933014;29;19931;-88
2022/08/24 10:56:58;;;;;;;;;;;;;;;37.58;15.75;100404.66;4933204;29;19987;-88
2022/08/24 10:59:30;;;;;;;;;;;;;;;37.90;15.29;100410.41;4934919;29;20400;-88
2022/08/24 11:02:00;;;;;;;;;;;;;;;38.08;15.17;100396.41;4917465;29;19966;-88
2022/08/24 11:04:35;;;;;;;;;;;;;;;37.99;15.47;100403.66;4918625;29;20406;-88
2022/08/24 11:07:16;;;;;;;;;;;;;;;38.56;15.09;100401.75;4920664;29;19930;-86
2022/08/24 11:09:55;;;;;;;;;;;;;;;38.67;15.15;100412.25;4919489;29;20339;-88
2022/08/24 11:12:31;;;;;;;;;;;;;;;38.63;14.99;100402.97;4915849;29;19931;-89
2022/08/24 11:14:59;;;;;;;;;;;;;;;38.70;14.85;100400.16;4911009;29;19931;-88
2022/08/24 11:17:31;;;;;;;;;;;;;;;38.93;15.00;100394.94;4942205;29;20374;-89
2022/08/24 11:19:58;;;;;;;;;;;;;;;39.39;15.07;100396.09;4920764;29;19935;-87
2022/08/24 11:22:42;;;;;;;;;;;;;;;39.24;14.44;100401.72;4916246;29;19959;-89
2022/08/24 11:25:13;;;;;;;;;;;;;;;39.31;14.75;100392.44;4930272;29;20357;-88
2022/08/24 11:27:41;;;;;;;;;;;;;;;38.70;15.01;100400.97;4935088;29;20298;-87
2022/08/24 11:30:35;;;;;;;;;;;;;;;39.00;14.43;100389.28;4918602;29;19930;-87
2022/08/24 11:33:06;;;;;;;;;;;;;;;39.54;14.67;100383.53;4931369;29;19935;-89
2022/08/24 11:35:38;;;;;;;;;;;;;;;39.44;14.40;100395.66;4901717;29;19931;-88
2022/08/24 11:38:21;;;;;;;;;;;;;;;39.81;14.22;100378.19;4917369;29;19931;-88
2022/08/24 11:40:53;;;;;;;;;;;;;;;40.27;14.10;100382.00;4916333;29;20033;-87
2022/08/24 11:43:43;;;;;;;;;;;;;;;40.44;13.78;100380.25;4931109;29;20401;-87
2022/08/24 11:46:30;;;;;;;;;;;;;;;40.20;13.72;100382.00;4943553;29;19938;-91
2022/08/24 11:49:09;;;;;;;;;;;;;;;39.63;13.66;100383.91;4910885;29;20043;-87
2022/08/24 11:51:48;;;;;;;;;;;;;;;39.86;13.60;100385.44;4929665;29;19978;-87
2022/08/24 11:54:33;;;;;;;;;;;;;;;39.71;13.66;100383.88;4893947;29;19954;-87
2022/08/24 11:57:00;;;;;;;;;;;;;;;39.40;14.32;100364.63;4912306;29;19930;-86
2022/08/24 11:59:34;;;;;;;;;;;;;;;39.26;14.40;100358.19;4901484;29;19950;-84
2022/08/24 12:02:05;;;;;;;;;;;;;;;39.36;14.31;100363.03;4929720;29;20599;-86
2022/08/24 12:04:32;;;;;;;;;;;;;;;38.72;14.56;100363.91;4929595;29;19983;-85
2022/08/24 12:07:17;;;;;;;;;;;;;;;38.65;14.60;100372.38;4936167;29;19937;-85
2022/08/24 12:09:48;;;;;;;;;;;;;;;38.88;14.77;100366.31;4938457;29;20324;-84
2022/08/24 12:12:26;;;;;;;;;;;;;;;38.72;14.87;100359.06;4937004;29;19935;-85
2022/08/24 12:15:23;;;;;;;;;;;;;;;38.80;14.88;100360.66;4926306;29;19941;-84
2022/08/24 12:17:59;;;;;;;;;;;;;;;39.26;14.51;100361.81;4918043;29;20341;-86
2022/08/24 12:20:30;;;;;;;;;;;;;;;39.37;14.96;100358.97;4887209;29;19935;-85
2022/08/24 12:22:59;;;;;;;;;;;;;;;39.89;14.63;100347.88;4908518;29;19977;-86
2022/08/24 12:28:11;;;;;;;;;;;;;;;39.62;14.02;100353.22;4899193;29;19979;-86
2022/08/24 12:30:38;;;;;;;;;;;;;;;38.88;14.15;100346.56;4899485;29;19971;-86
2022/08/24 12:33:06;;;;;;;;;;;;;;;38.80;14.46;100345.75;4899658;29;19957;-86
2022/08/24 12:35:33;;;;;;;;;;;;;;;39.02;14.68;100338.06;4885075;29;19935;-86
2022/08/24 12:38:02;;;;;;;;;;;;;;;39.26;14.76;100338.44;4911121;29;19940;-86
2022/08/24 12:40:32;;;;;;;;;;;;;;;39.07;14.62;100334.84;4907555;29;19937;-87
2022/08/24 12:42:59;;;;;;;;;;;;;;;39.04;14.41;100340.50;4899623;29;20004;-88
2022/08/24 12:45:26;;;;;;;;;;;;;;;38.97;14.54;100344.13;4902909;29;19941;-87
2022/08/24 12:47:56;;;;;;;;;;;;;;;38.65;14.52;100327.25;4908390;29;19939;-86
2022/08/24 12:50:32;;;;;;;;;;;;;;;39.32;14.29;100333.97;4916796;29;19977;-87
2022/08/24 12:53:18;;;;;;;;;;;;;;;39.74;13.90;100332.19;4920516;29;20403;-87
2022/08/24 12:55:47;;;;;;;;;;;;;;;39.81;13.42;100347.13;4915932;29;19937;-88
2022/08/24 12:58:38;;;;;;;;;;;;;;;39.24;13.61;100330.34;4929708;29;19937;-85
2022/08/24 13:01:21;;;;;;;;;;;;;;;39.50;13.92;100329.06;4930483;29;20033;-84
2022/08/24 13:04:04;;;;;;;;;;;;;;;40.03;13.75;100333.69;4932437;29;19937;-85
2022/08/24 13:06:42;;;;;;;;;;;;;;;41.01;12.78;100328.81;4926363;29;19937;-84
2022/08/24 13:09:14;;;;;;;;;;;;;;;41.23;12.49;100318.09;4929480;29;20000;-84
2022/08/24 13:11:41;;;;;;;;;;;;;;;40.59;12.70;100330.84;4934434;29;20074;-86
2022/08/24 13:14:17;;;;;;;;;;;;;;;38.78;13.45;100320.75;4934675;29;19934;-84